createdAt,value
2017-08-01T00:00:10.486Z,0
2017-08-01T00:01:10.759Z,0
2017-08-01T00:02:10.751Z,0
2017-08-01T00:03:10.422Z,0
2017-08-01T00:04:10.407Z,0
2017-08-01T00:05:10.397Z,0
2017-08-01T00:06:10.384Z,0
2017-08-01T00:07:10.663Z,0
2017-08-01T00:08:10.390Z,0
2017-08-01T00:09:10.612Z,0
2017-08-01T00:10:10.594Z,0
2017-08-01T00:11:10.979Z,0
2017-08-01T00:12:10.266Z,0
2017-08-01T00:13:10.244Z,0
2017-08-01T00:14:10.225Z,0
2017-08-01T00:15:09.645Z,0
2017-08-01T00:16:09.890Z,0
2017-08-01T00:17:09.870Z,0
2017-08-01T00:18:09.871Z,0
2017-08-01T00:19:09.836Z,0
2017-08-01T00:20:10.413Z,0
2017-08-01T00:21:10.094Z,0
2017-08-01T00:22:10.388Z,0
2017-08-01T00:23:10.354Z,0
2017-08-01T00:24:10.341Z,0
2017-08-01T00:25:10.021Z,0
2017-08-01T00:26:10.296Z,0
2017-08-01T00:27:09.986Z,0
2017-08-01T00:28:09.968Z,0
2017-08-01T00:29:09.948Z,0
2017-08-01T00:30:09.926Z,0
2017-08-01T00:31:09.912Z,0
2017-08-01T00:32:10.192Z,0
2017-08-01T00:33:09.870Z,0
2017-08-01T00:34:09.856Z,0
2017-08-01T00:35:09.835Z,0
2017-08-01T00:36:10.108Z,0
2017-08-01T00:37:09.800Z,0
2017-08-01T00:38:09.800Z,0
2017-08-01T00:39:09.753Z,0
2017-08-01T00:40:09.737Z,0
2017-08-01T00:41:10.034Z,0
2017-08-01T00:42:09.701Z,0
2017-08-01T00:43:09.687Z,0
2017-08-01T00:44:09.963Z,0
2017-08-01T00:45:09.638Z,0
2017-08-01T00:46:09.927Z,0
2017-08-01T00:47:09.903Z,0
2017-08-01T00:48:09.878Z,0
2017-08-01T00:49:09.573Z,0
2017-08-01T00:50:09.840Z,0
2017-08-01T00:51:09.826Z,0
2017-08-01T00:52:09.509Z,0
2017-08-01T00:53:09.789Z,0
2017-08-01T00:54:09.772Z,0
2017-08-01T00:55:09.772Z,0
2017-08-01T00:56:09.739Z,0
2017-08-01T00:57:09.420Z,0
2017-08-01T00:58:09.684Z,0
2017-08-01T00:59:09.373Z,0
2017-08-01T01:00:09.649Z,0
2017-08-01T01:01:09.342Z,0
2017-08-01T01:02:09.619Z,0
2017-08-01T01:03:09.609Z,0
2017-08-01T01:04:09.288Z,0
2017-08-01T01:05:09.261Z,0
2017-08-01T01:06:09.541Z,0
2017-08-01T01:07:09.520Z,0
2017-08-01T01:08:09.500Z,0
2017-08-01T01:09:09.480Z,0
2017-08-01T01:10:09.166Z,0
2017-08-01T01:11:09.456Z,0
2017-08-01T01:12:09.123Z,0
2017-08-01T01:13:09.423Z,0
2017-08-01T01:14:09.089Z,0
2017-08-01T01:15:09.373Z,0
2017-08-01T01:16:09.055Z,0
2017-08-01T01:17:09.049Z,0
2017-08-01T01:18:09.311Z,0
2017-08-01T01:19:09.294Z,0
2017-08-01T01:20:09.271Z,0
2017-08-01T01:21:09.324Z,0
2017-08-01T01:22:09.234Z,0
2017-08-01T01:23:08.916Z,0
2017-08-01T01:24:09.194Z,0
2017-08-01T01:25:09.178Z,0
2017-08-01T01:26:08.570Z,0
2017-08-01T01:27:09.138Z,0
2017-08-01T01:28:09.123Z,0
2017-08-01T01:29:08.816Z,0
2017-08-01T01:30:09.084Z,0
2017-08-01T01:31:08.470Z,0
2017-08-01T01:32:08.447Z,0
2017-08-01T01:33:09.027Z,0
2017-08-01T01:34:08.431Z,0
2017-08-01T01:35:09.021Z,0
2017-08-01T01:36:08.967Z,0
2017-08-01T01:37:08.946Z,0
2017-08-01T01:38:08.631Z,0
2017-08-01T01:39:08.613Z,0
2017-08-01T01:40:08.594Z,0
2017-08-01T01:41:08.571Z,0
2017-08-01T01:42:08.552Z,0
2017-08-01T01:43:08.841Z,0
2017-08-01T01:44:08.519Z,0
2017-08-01T01:45:08.499Z,0
2017-08-01T01:46:08.472Z,0
2017-08-01T01:47:08.457Z,0
2017-08-01T01:48:08.740Z,0
2017-08-01T01:49:08.425Z,0
2017-08-01T01:50:08.104Z,0
2017-08-01T01:51:08.382Z,0
2017-08-01T01:52:08.362Z,0
2017-08-01T01:53:08.646Z,0
2017-08-01T01:54:08.618Z,0
2017-08-01T01:55:08.609Z,0
2017-08-01T01:56:08.285Z,0
2017-08-01T01:57:08.272Z,0
2017-08-01T01:58:08.258Z,0
2017-08-01T01:59:08.522Z,0
2017-08-01T02:00:08.219Z,0
2017-08-01T02:01:08.188Z,0
2017-08-01T02:02:08.176Z,0
2017-08-01T02:03:08.457Z,0
2017-08-01T02:04:08.459Z,0
2017-08-01T02:05:08.415Z,0
2017-08-01T02:06:08.396Z,0
2017-08-01T02:07:08.377Z,0
2017-08-01T02:08:08.066Z,0
2017-08-01T02:09:08.044Z,0
2017-08-01T02:10:08.317Z,0
2017-08-01T02:11:08.029Z,0
2017-08-01T02:12:08.284Z,0
2017-08-01T02:13:08.613Z,0
2017-08-01T02:14:08.243Z,0
2017-08-01T02:15:07.928Z,0
2017-08-01T02:16:07.913Z,0
2017-08-01T02:17:08.193Z,0
2017-08-01T02:18:08.172Z,0
2017-08-01T02:19:08.151Z,0
2017-08-01T02:20:07.833Z,0
2017-08-01T02:21:08.114Z,0
2017-08-01T02:22:08.101Z,0
2017-08-01T02:23:08.072Z,0
2017-08-01T02:24:08.057Z,0
2017-08-01T02:25:08.041Z,0
2017-08-01T02:26:07.720Z,0
2017-08-01T02:27:07.410Z,0
2017-08-01T02:28:07.983Z,0
2017-08-01T02:29:07.962Z,0
2017-08-01T02:30:07.960Z,0
2017-08-01T02:31:07.926Z,0
2017-08-01T02:32:07.921Z,0
2017-08-01T02:33:07.616Z,0
2017-08-01T02:34:07.577Z,0
2017-08-01T02:35:07.857Z,0
2017-08-01T02:36:07.835Z,0
2017-08-01T02:37:07.517Z,0
2017-08-01T02:38:07.510Z,0
2017-08-01T02:39:07.774Z,0
2017-08-01T02:40:07.464Z,0
2017-08-01T02:41:07.734Z,0
2017-08-01T02:42:07.725Z,0
2017-08-01T02:43:07.709Z,0
2017-08-01T02:44:07.389Z,0
2017-08-01T02:45:07.364Z,0
2017-08-01T02:46:07.351Z,0
2017-08-01T02:47:07.633Z,0
2017-08-01T02:48:07.313Z,0
2017-08-01T02:49:07.595Z,0
2017-08-01T02:50:07.284Z,0
2017-08-01T02:51:07.551Z,0
2017-08-01T02:52:07.247Z,0
2017-08-01T02:53:07.512Z,0
2017-08-01T02:54:07.492Z,0
2017-08-01T02:55:07.178Z,0
2017-08-01T02:56:06.859Z,0
2017-08-01T02:57:07.140Z,0
2017-08-01T02:58:07.126Z,0
2017-08-01T02:59:07.400Z,0
2017-08-01T03:00:07.082Z,0
2017-08-01T03:01:07.362Z,0
2017-08-01T03:02:07.342Z,0
2017-08-01T03:03:07.095Z,0
2017-08-01T03:04:07.311Z,0
2017-08-01T03:05:07.295Z,0
2017-08-01T03:06:06.967Z,0
2017-08-01T03:07:07.254Z,0
2017-08-01T03:08:07.223Z,0
2017-08-01T03:09:06.912Z,0
2017-08-01T03:10:06.589Z,0
2017-08-01T03:11:07.172Z,0
2017-08-01T03:12:06.852Z,0
2017-08-01T03:13:06.839Z,0
2017-08-01T03:14:06.809Z,0
2017-08-01T03:15:07.093Z,0
2017-08-01T03:16:07.072Z,0
2017-08-01T03:17:07.065Z,0
2017-08-01T03:18:07.047Z,0
2017-08-01T03:19:07.016Z,0
2017-08-01T03:20:06.997Z,0
2017-08-01T03:21:06.978Z,0
2017-08-01T03:22:06.965Z,0
2017-08-01T03:23:06.939Z,0
2017-08-01T03:24:06.925Z,0
2017-08-01T03:25:06.333Z,0
2017-08-01T03:26:06.584Z,0
2017-08-01T03:27:06.565Z,0
2017-08-01T03:28:06.547Z,0
2017-08-01T03:29:06.529Z,0
2017-08-01T03:30:06.209Z,0
2017-08-01T03:31:06.809Z,0
2017-08-01T03:32:06.769Z,0
2017-08-01T03:33:06.458Z,0
2017-08-01T03:34:06.442Z,0
2017-08-01T03:35:06.407Z,0
2017-08-01T03:36:06.391Z,0
2017-08-01T03:37:06.671Z,0
2017-08-01T03:38:06.346Z,0
2017-08-01T03:39:06.331Z,0
2017-08-01T03:40:06.317Z,0
2017-08-01T03:41:06.301Z,0
2017-08-01T03:42:06.566Z,0
2017-08-01T03:43:06.260Z,0
2017-08-01T03:44:06.536Z,0
2017-08-01T03:45:06.541Z,0
2017-08-01T03:46:06.194Z,5
2017-08-01T03:47:06.180Z,5
2017-08-01T03:48:06.161Z,5
2017-08-01T03:49:06.435Z,5
2017-08-01T03:50:06.414Z,5
2017-08-01T03:51:06.391Z,5
2017-08-01T03:52:06.372Z,5
2017-08-01T03:53:06.357Z,5
2017-08-01T03:54:06.334Z,5
2017-08-01T03:55:06.364Z,5
2017-08-01T03:56:06.298Z,10
2017-08-01T03:57:06.275Z,10
2017-08-01T03:58:06.259Z,10
2017-08-01T03:59:05.943Z,10
2017-08-01T04:00:06.226Z,15
2017-08-01T04:01:06.209Z,15
2017-08-01T04:02:06.178Z,15
2017-08-01T04:03:06.164Z,20
2017-08-01T04:04:06.143Z,20
2017-08-01T04:05:06.132Z,20
2017-08-01T04:06:06.112Z,25
2017-08-01T04:07:05.794Z,25
2017-08-01T04:08:06.065Z,30
2017-08-01T04:09:05.752Z,35
2017-08-01T04:10:06.028Z,35
2017-08-01T04:11:06.008Z,40
2017-08-01T04:12:05.396Z,40
2017-08-01T04:13:05.981Z,45
2017-08-01T04:14:05.948Z,50
2017-08-01T04:15:05.934Z,50
2017-08-01T04:16:05.910Z,55
2017-08-01T04:17:05.929Z,60
2017-08-01T04:18:05.870Z,60
2017-08-01T04:19:05.851Z,65
2017-08-01T04:20:05.848Z,70
2017-08-01T04:21:05.818Z,80
2017-08-01T04:22:05.795Z,85
2017-08-01T04:23:05.777Z,95
2017-08-01T04:24:05.761Z,110
2017-08-01T04:25:05.446Z,115
2017-08-01T04:26:05.719Z,125
2017-08-01T04:27:05.111Z,125
2017-08-01T04:28:05.684Z,130
2017-08-01T04:29:05.665Z,135
2017-08-01T04:30:05.350Z,140
2017-08-01T04:31:05.444Z,140
2017-08-01T04:32:05.902Z,145
2017-08-01T04:33:05.603Z,155
2017-08-01T04:34:05.569Z,165
2017-08-01T04:35:05.259Z,180
2017-08-01T04:36:05.241Z,190
2017-08-01T04:37:05.220Z,205
2017-08-01T04:38:04.903Z,205
2017-08-01T04:39:05.177Z,205
2017-08-01T04:40:05.167Z,205
2017-08-01T04:41:05.143Z,205
2017-08-01T04:42:05.430Z,205
2017-08-01T04:43:05.405Z,210
2017-08-01T04:44:05.090Z,215
2017-08-01T04:45:05.077Z,220
2017-08-01T04:46:05.073Z,220
2017-08-01T04:47:05.328Z,225
2017-08-01T04:48:05.014Z,230
2017-08-01T04:49:05.290Z,230
2017-08-01T04:50:04.974Z,230
2017-08-01T04:51:05.259Z,225
2017-08-01T04:52:04.936Z,230
2017-08-01T04:53:05.236Z,235
2017-08-01T04:54:04.905Z,235
2017-08-01T04:55:05.188Z,235
2017-08-01T04:56:05.171Z,240
2017-08-01T04:57:05.151Z,240
2017-08-01T04:58:04.839Z,245
2017-08-01T04:59:05.109Z,245
2017-08-01T05:00:05.097Z,250
2017-08-01T05:01:05.082Z,250
2017-08-01T05:02:04.465Z,250
2017-08-01T05:03:04.743Z,250
2017-08-01T05:04:05.025Z,255
2017-08-01T05:05:04.412Z,255
2017-08-01T05:06:04.989Z,260
2017-08-01T05:07:04.670Z,265
2017-08-01T05:08:04.950Z,275
2017-08-01T05:09:04.640Z,285
2017-08-01T05:10:04.612Z,290
2017-08-01T05:11:04.854Z,295
2017-08-01T05:12:04.876Z,300
2017-08-01T05:13:04.858Z,305
2017-08-01T05:14:04.996Z,305
2017-08-01T05:15:04.820Z,305
2017-08-01T05:16:04.800Z,300
2017-08-01T05:17:04.818Z,295
2017-08-01T05:18:04.174Z,290
2017-08-01T05:19:04.775Z,280
2017-08-01T05:20:04.133Z,275
2017-08-01T05:21:04.707Z,270
2017-08-01T05:22:04.689Z,275
2017-08-01T05:23:04.676Z,280
2017-08-01T05:24:04.359Z,280
2017-08-01T05:25:04.340Z,270
2017-08-01T05:26:04.617Z,265
2017-08-01T05:27:04.604Z,265
2017-08-01T05:28:04.579Z,260
2017-08-01T05:29:04.568Z,255
2017-08-01T05:30:04.569Z,255
2017-08-01T05:31:04.234Z,260
2017-08-01T05:32:04.222Z,265
2017-08-01T05:33:04.496Z,270
2017-08-01T05:34:04.472Z,275
2017-08-01T05:35:04.184Z,275
2017-08-01T05:36:04.147Z,275
2017-08-01T05:37:04.122Z,290
2017-08-01T05:38:04.107Z,295
2017-08-01T05:39:04.395Z,310
2017-08-01T05:40:04.372Z,315
2017-08-01T05:41:04.342Z,320
2017-08-01T05:42:04.342Z,345
2017-08-01T05:43:04.320Z,360
2017-08-01T05:44:03.411Z,365
2017-08-01T05:45:04.272Z,345
2017-08-01T05:46:04.258Z,310
2017-08-01T05:47:04.241Z,305
2017-08-01T05:48:04.223Z,295
2017-08-01T05:49:04.215Z,285
2017-08-01T05:50:04.189Z,285
2017-08-01T05:51:04.183Z,295
2017-08-01T05:52:04.166Z,300
2017-08-01T05:53:04.136Z,315
2017-08-01T05:54:04.125Z,340
2017-08-01T05:55:04.099Z,375
2017-08-01T05:56:04.089Z,405
2017-08-01T05:57:04.067Z,440
2017-08-01T05:58:04.053Z,445
2017-08-01T05:59:04.031Z,460
2017-08-01T06:00:04.023Z,465
2017-08-01T06:01:04.374Z,450
2017-08-01T06:02:03.684Z,455
2017-08-01T06:03:03.960Z,425
2017-08-01T06:04:03.944Z,405
2017-08-01T06:05:03.936Z,395
2017-08-01T06:06:03.912Z,395
2017-08-01T06:07:03.899Z,395
2017-08-01T06:08:03.589Z,395
2017-08-01T06:09:03.863Z,500
2017-08-01T06:10:03.876Z,415
2017-08-01T06:11:03.827Z,430
2017-08-01T06:12:03.909Z,480
2017-08-01T06:13:03.814Z,735
2017-08-01T06:14:03.787Z,580
2017-08-01T06:15:03.175Z,580
2017-08-01T06:16:03.743Z,850
2017-08-01T06:17:03.761Z,1085
2017-08-01T06:18:03.712Z,1135
2017-08-01T06:19:03.702Z,985
2017-08-01T06:20:03.400Z,1050
2017-08-01T06:21:03.662Z,1145
2017-08-01T06:22:03.378Z,1155
2017-08-01T06:23:03.633Z,690
2017-08-01T06:24:03.038Z,585
2017-08-01T06:25:03.601Z,590
2017-08-01T06:26:03.594Z,585
2017-08-01T06:27:03.580Z,515
2017-08-01T06:28:03.556Z,530
2017-08-01T06:29:03.560Z,550
2017-08-01T06:30:03.532Z,555
2017-08-01T06:31:03.225Z,555
2017-08-01T06:32:03.271Z,675
2017-08-01T06:33:03.490Z,810
2017-08-01T06:34:03.473Z,930
2017-08-01T06:35:03.452Z,1175
2017-08-01T06:36:03.496Z,1110
2017-08-01T06:37:03.125Z,1065
2017-08-01T06:38:02.813Z,1295
2017-08-01T06:39:03.136Z,1280
2017-08-01T06:40:03.381Z,1210
2017-08-01T06:41:02.788Z,985
2017-08-01T06:42:03.354Z,635
2017-08-01T06:43:03.336Z,650
2017-08-01T06:44:03.325Z,680
2017-08-01T06:45:03.011Z,690
2017-08-01T06:46:03.001Z,730
2017-08-01T06:47:02.691Z,750
2017-08-01T06:48:03.017Z,770
2017-08-01T06:49:02.661Z,790
2017-08-01T06:50:02.946Z,770
2017-08-01T06:51:02.628Z,755
2017-08-01T06:52:02.625Z,825
2017-08-01T06:53:03.199Z,900
2017-08-01T06:54:03.201Z,1070
2017-08-01T06:55:03.178Z,925
2017-08-01T06:56:03.155Z,900
2017-08-01T06:57:03.145Z,955
2017-08-01T06:58:02.835Z,1090
2017-08-01T06:59:03.118Z,905
2017-08-01T07:00:02.901Z,885
2017-08-01T07:01:02.792Z,930
2017-08-01T07:02:02.784Z,915
2017-08-01T07:03:02.765Z,975
2017-08-01T07:04:03.227Z,940
2017-08-01T07:05:03.061Z,885
2017-08-01T07:06:02.648Z,1075
2017-08-01T07:07:02.720Z,915
2017-08-01T07:08:03.562Z,860
2017-08-01T07:09:02.594Z,880
2017-08-01T07:10:02.385Z,850
2017-08-01T07:11:02.957Z,850
2017-08-01T07:12:02.970Z,860
2017-08-01T07:13:02.634Z,855
2017-08-01T07:14:02.619Z,845
2017-08-01T07:15:02.903Z,830
2017-08-01T07:16:02.896Z,825
2017-08-01T07:17:02.666Z,835
2017-08-01T07:18:02.965Z,870
2017-08-01T07:19:02.670Z,970
2017-08-01T07:20:02.844Z,1040
2017-08-01T07:21:02.826Z,1210
2017-08-01T07:22:03.168Z,1115
2017-08-01T07:23:02.633Z,1270
2017-08-01T07:24:02.566Z,1145
2017-08-01T07:25:02.773Z,1085
2017-08-01T07:26:02.761Z,1045
2017-08-01T07:27:02.453Z,945
2017-08-01T07:28:02.144Z,1005
2017-08-01T07:29:02.728Z,1055
2017-08-01T07:30:02.712Z,1105
2017-08-01T07:31:02.703Z,910
2017-08-01T07:32:02.386Z,835
2017-08-01T07:33:02.681Z,750
2017-08-01T07:34:02.374Z,695
2017-08-01T07:35:02.673Z,690
2017-08-01T07:36:02.649Z,690
2017-08-01T07:37:02.331Z,680
2017-08-01T07:38:02.614Z,685
2017-08-01T07:39:02.599Z,700
2017-08-01T07:40:02.590Z,705
2017-08-01T07:41:02.576Z,715
2017-08-01T07:42:02.584Z,745
2017-08-01T07:43:02.558Z,780
2017-08-01T07:44:02.237Z,785
2017-08-01T07:45:01.935Z,800
2017-08-01T07:46:02.515Z,790
2017-08-01T07:47:01.905Z,795
2017-08-01T07:48:02.189Z,805
2017-08-01T07:49:02.183Z,830
2017-08-01T07:50:03.209Z,860
2017-08-01T07:51:02.155Z,900
2017-08-01T07:52:02.153Z,895
2017-08-01T07:53:02.425Z,865
2017-08-01T07:54:02.407Z,820
2017-08-01T07:55:02.464Z,780
2017-08-01T07:56:02.612Z,755
2017-08-01T07:57:02.745Z,735
2017-08-01T07:58:02.685Z,730
2017-08-01T07:59:01.658Z,735
2017-08-01T08:00:02.332Z,750
2017-08-01T08:01:01.852Z,765
2017-08-01T08:02:01.940Z,780
2017-08-01T08:03:02.768Z,800
2017-08-01T08:04:02.765Z,815
2017-08-01T08:05:01.974Z,825
2017-08-01T08:06:01.966Z,820
2017-08-01T08:07:01.648Z,815
2017-08-01T08:08:01.637Z,805
2017-08-01T08:09:02.222Z,795
2017-08-01T08:10:01.618Z,790
2017-08-01T08:11:01.598Z,790
2017-08-01T08:12:02.178Z,795
2017-08-01T08:13:02.163Z,800
2017-08-01T08:14:02.156Z,810
2017-08-01T08:15:01.610Z,830
2017-08-01T08:16:02.136Z,850
2017-08-01T08:17:02.111Z,850
2017-08-01T08:18:01.958Z,855
2017-08-01T08:19:02.090Z,855
2017-08-01T08:20:02.930Z,845
2017-08-01T08:21:04.375Z,840
2017-08-01T08:22:02.414Z,830
2017-08-01T08:23:02.013Z,815
2017-08-01T08:24:02.661Z,800
2017-08-01T08:25:02.813Z,785
2017-08-01T08:26:02.003Z,770
2017-08-01T08:27:01.982Z,755
2017-08-01T08:28:01.963Z,740
2017-08-01T08:29:02.016Z,715
2017-08-01T08:30:01.991Z,690
2017-08-01T08:31:01.922Z,685
2017-08-01T08:32:01.314Z,660
2017-08-01T08:33:01.897Z,650
2017-08-01T08:34:01.888Z,650
2017-08-01T08:35:01.280Z,655
2017-08-01T08:36:01.856Z,675
2017-08-01T08:37:01.544Z,690
2017-08-01T08:38:01.928Z,720
2017-08-01T08:39:01.807Z,765
2017-08-01T08:40:01.800Z,815
2017-08-01T08:41:01.782Z,865
2017-08-01T08:42:01.767Z,890
2017-08-01T08:43:01.750Z,915
2017-08-01T08:44:01.751Z,930
2017-08-01T08:45:01.731Z,945
2017-08-01T08:46:01.422Z,960
2017-08-01T08:47:01.740Z,990
2017-08-01T08:48:01.393Z,1010
2017-08-01T08:49:01.679Z,1040
2017-08-01T08:50:01.659Z,1045
2017-08-01T08:51:01.355Z,1020
2017-08-01T08:52:01.636Z,1000
2017-08-01T08:53:00.745Z,965
2017-08-01T08:54:01.317Z,930
2017-08-01T08:55:01.304Z,880
2017-08-01T08:56:01.611Z,830
2017-08-01T08:57:01.585Z,785
2017-08-01T08:58:01.569Z,740
2017-08-01T08:59:01.558Z,705
2017-08-01T09:00:01.228Z,680
2017-08-01T09:01:00.927Z,660
2017-08-01T09:02:01.007Z,620
2017-08-01T09:03:01.543Z,580
2017-08-01T09:04:00.973Z,550
2017-08-01T09:05:01.361Z,540
2017-08-01T09:06:01.462Z,535
2017-08-01T09:07:01.479Z,535
2017-08-01T09:08:01.448Z,535
2017-08-01T09:09:01.121Z,535
2017-08-01T09:10:01.401Z,530
2017-08-01T09:11:01.385Z,515
2017-08-01T09:12:00.779Z,500
2017-08-01T09:13:01.362Z,500
2017-08-01T09:14:00.757Z,515
2017-08-01T09:15:01.333Z,525
2017-08-01T09:16:01.330Z,510
2017-08-01T09:17:01.310Z,480
2017-08-01T09:18:01.285Z,455
2017-08-01T09:19:00.976Z,475
2017-08-01T09:20:01.259Z,565
2017-08-01T09:21:00.954Z,680
2017-08-01T09:22:00.974Z,795
2017-08-01T09:23:01.219Z,865
2017-08-01T09:24:01.205Z,875
2017-08-01T09:25:01.196Z,870
2017-08-01T09:26:00.888Z,870
2017-08-01T09:27:00.865Z,860
2017-08-01T09:28:00.847Z,835
2017-08-01T09:29:00.843Z,790
2017-08-01T09:30:00.823Z,750
2017-08-01T09:31:00.814Z,695
2017-08-01T09:32:01.087Z,655
2017-08-01T09:33:01.081Z,635
2017-08-01T09:34:00.767Z,625
2017-08-01T09:35:00.763Z,615
2017-08-01T09:36:01.032Z,580
2017-08-01T09:37:01.019Z,540
2017-08-01T09:38:01.006Z,510
2017-08-01T09:39:00.994Z,505
2017-08-01T09:40:00.684Z,535
2017-08-01T09:41:00.668Z,580
2017-08-01T09:42:00.958Z,625
2017-08-01T09:43:00.943Z,665
2017-08-01T09:44:00.625Z,710
2017-08-01T09:45:00.618Z,755
2017-08-01T09:46:00.948Z,820
2017-08-01T09:47:00.878Z,890
2017-08-01T09:48:00.877Z,970
2017-08-01T09:49:00.558Z,1050
2017-08-01T09:50:00.852Z,1070
2017-08-01T09:51:00.832Z,1075
2017-08-01T09:52:00.514Z,1075
2017-08-01T09:53:00.502Z,1115
2017-08-01T09:54:00.792Z,1155
2017-08-01T09:55:00.783Z,1210
2017-08-01T09:56:00.468Z,1275
2017-08-01T09:56:59.859Z,1305
2017-08-01T09:58:00.735Z,1340
2017-08-01T09:59:00.123Z,1365
2017-08-01T10:00:00.710Z,1315
2017-08-01T10:01:00.701Z,1255
2017-08-01T10:02:00.095Z,1235
2017-08-01T10:03:00.674Z,1285
2017-08-01T10:04:00.693Z,1305
2017-08-01T10:05:00.076Z,1185
2017-08-01T10:06:00.046Z,1010
2017-08-01T10:07:00.626Z,1025
2017-08-01T10:08:00.312Z,1310
2017-08-01T10:09:00.309Z,1620
2017-08-01T10:10:00.923Z,2020
2017-08-01T10:11:01.616Z,2260
2017-08-01T10:12:01.415Z,2610
2017-08-01T10:13:01.167Z,2315
2017-08-01T10:14:00.538Z,2345
2017-08-01T10:15:01.019Z,2165
2017-08-01T10:16:00.526Z,2560
2017-08-01T10:17:00.505Z,1975
2017-08-01T10:17:59.608Z,3100
2017-08-01T10:19:00.732Z,2845
2017-08-01T10:20:00.197Z,2635
2017-08-01T10:20:59.926Z,2650
2017-08-01T10:21:59.870Z,2625
2017-08-01T10:22:59.868Z,2605
2017-08-01T10:23:59.850Z,2610
2017-08-01T10:24:59.842Z,2620
2017-08-01T10:26:00.470Z,2665
2017-08-01T10:27:00.138Z,2355
2017-08-01T10:27:59.825Z,2225
2017-08-01T10:29:00.131Z,2135
2017-08-01T10:30:00.407Z,1820
2017-08-01T10:30:59.810Z,1640
2017-08-01T10:31:59.505Z,1570
2017-08-01T10:33:00.088Z,1490
2017-08-01T10:34:00.379Z,1430
2017-08-01T10:35:00.079Z,1320
2017-08-01T10:36:00.070Z,1235
2017-08-01T10:37:00.364Z,1095
2017-08-01T10:38:00.360Z,1090
2017-08-01T10:39:00.349Z,1130
2017-08-01T10:40:00.340Z,1150
2017-08-01T10:41:00.036Z,1165
2017-08-01T10:42:00.328Z,1135
2017-08-01T10:43:00.336Z,1105
2017-08-01T10:44:00.014Z,1040
2017-08-01T10:45:00.309Z,955
2017-08-01T10:45:59.990Z,885
2017-08-01T10:47:00.284Z,810
2017-08-01T10:48:00.268Z,845
2017-08-01T10:48:59.980Z,915
2017-08-01T10:50:00.256Z,980
2017-08-01T10:51:00.111Z,1085
2017-08-01T10:52:00.011Z,1125
2017-08-01T10:53:00.334Z,1150
2017-08-01T10:53:59.995Z,1190
2017-08-01T10:55:00.213Z,1205
2017-08-01T10:56:00.307Z,1245
2017-08-01T10:57:00.238Z,1320
2017-08-01T10:57:59.907Z,1235
2017-08-01T10:58:59.864Z,1165
2017-08-01T11:00:00.163Z,1170
2017-08-01T11:01:00.199Z,1195
2017-08-01T11:02:00.130Z,1250
2017-08-01T11:03:00.123Z,1285
2017-08-01T11:04:00.113Z,1275
2017-08-01T11:04:59.807Z,1180
2017-08-01T11:06:00.090Z,1155
2017-08-01T11:07:00.091Z,1205
2017-08-01T11:07:59.495Z,1220
2017-08-01T11:09:00.055Z,1365
2017-08-01T11:10:00.061Z,1385
2017-08-01T11:10:59.740Z,1305
2017-08-01T11:12:00.025Z,1215
2017-08-01T11:12:59.720Z,1190
2017-08-01T11:14:00.006Z,1135
2017-08-01T11:15:00.024Z,1120
2017-08-01T11:15:59.997Z,1195
2017-08-01T11:17:00.064Z,1340
2017-08-01T11:17:59.964Z,1695
2017-08-01T11:18:59.958Z,1555
2017-08-01T11:19:59.947Z,1440
2017-08-01T11:20:59.930Z,1310
2017-08-01T11:21:59.918Z,1340
2017-08-01T11:22:59.610Z,1370
2017-08-01T11:23:59.902Z,1300
2017-08-01T11:24:59.884Z,1275
2017-08-01T11:25:59.600Z,1275
2017-08-01T11:26:59.872Z,1270
2017-08-01T11:27:59.859Z,1325
2017-08-01T11:28:59.851Z,1360
2017-08-01T11:29:59.835Z,1350
2017-08-01T11:30:59.544Z,1330
2017-08-01T11:31:59.813Z,1360
2017-08-01T11:32:59.806Z,1360
2017-08-01T11:33:59.790Z,1390
2017-08-01T11:34:59.831Z,1455
2017-08-01T11:35:59.780Z,1425
2017-08-01T11:36:59.468Z,1270
2017-08-01T11:37:59.754Z,1120
2017-08-01T11:38:59.783Z,965
2017-08-01T11:39:59.729Z,840
2017-08-01T11:40:59.725Z,785
2017-08-01T11:41:59.706Z,755
2017-08-01T11:42:59.699Z,725
2017-08-01T11:44:00.352Z,705
2017-08-01T11:44:59.684Z,680
2017-08-01T11:45:59.793Z,685
2017-08-01T11:46:59.433Z,710
2017-08-01T11:47:59.649Z,730
2017-08-01T11:48:59.760Z,760
2017-08-01T11:49:59.696Z,805
2017-08-01T11:50:59.018Z,835
2017-08-01T11:51:59.598Z,865
2017-08-01T11:52:59.590Z,885
2017-08-01T11:53:59.609Z,880
2017-08-01T11:54:59.609Z,865
2017-08-01T11:55:59.548Z,825
2017-08-01T11:56:59.593Z,750
2017-08-01T11:57:59.528Z,660
2017-08-01T11:58:59.212Z,615
2017-08-01T11:59:59.504Z,600
2017-08-01T12:00:59.192Z,610
2017-08-01T12:01:59.473Z,635
2017-08-01T12:02:59.463Z,645
2017-08-01T12:03:59.456Z,645
2017-08-01T12:04:59.444Z,670
2017-08-01T12:05:59.599Z,695
2017-08-01T12:07:00.411Z,725
2017-08-01T12:07:59.935Z,820
2017-08-01T12:08:59.100Z,990
2017-08-01T12:09:59.096Z,1180
2017-08-01T12:10:59.069Z,1310
2017-08-01T12:11:59.386Z,1340
2017-08-01T12:12:59.353Z,1405
2017-08-01T12:13:59.030Z,1495
2017-08-01T12:14:59.325Z,1495
2017-08-01T12:15:59.016Z,1395
2017-08-01T12:16:59.285Z,1285
2017-08-01T12:17:58.983Z,1185
2017-08-01T12:18:59.264Z,1110
2017-08-01T12:19:59.256Z,1105
2017-08-01T12:20:58.943Z,1110
2017-08-01T12:21:59.234Z,1135
2017-08-01T12:22:59.214Z,1145
2017-08-01T12:23:58.907Z,1165
2017-08-01T12:24:59.190Z,1205
2017-08-01T12:25:58.889Z,1200
2017-08-01T12:26:58.826Z,1155
2017-08-01T12:27:58.726Z,1020
2017-08-01T12:28:58.966Z,955
2017-08-01T12:29:59.141Z,960
2017-08-01T12:30:58.836Z,985
2017-08-01T12:31:58.839Z,1000
2017-08-01T12:32:58.804Z,1040
2017-08-01T12:33:58.794Z,1175
2017-08-01T12:34:58.781Z,1185
2017-08-01T12:35:58.773Z,1230
2017-08-01T12:36:58.755Z,1245
2017-08-01T12:37:58.761Z,1320
2017-08-01T12:38:59.027Z,1390
2017-08-01T12:39:59.025Z,1420
2017-08-01T12:40:58.717Z,1415
2017-08-01T12:41:59.216Z,1395
2017-08-01T12:42:58.985Z,1335
2017-08-01T12:43:59.008Z,1305
2017-08-01T12:44:58.974Z,1275
2017-08-01T12:45:58.658Z,1295
2017-08-01T12:46:58.658Z,1325
2017-08-01T12:47:58.928Z,1345
2017-08-01T12:48:58.918Z,1310
2017-08-01T12:49:58.911Z,1260
2017-08-01T12:50:58.906Z,1250
2017-08-01T12:51:58.296Z,1315
2017-08-01T12:52:58.914Z,1325
2017-08-01T12:53:58.274Z,1285
2017-08-01T12:54:58.564Z,1265
2017-08-01T12:55:58.866Z,1230
2017-08-01T12:56:58.566Z,1190
2017-08-01T12:57:58.828Z,1130
2017-08-01T12:58:58.612Z,1075
2017-08-01T12:59:58.597Z,995
2017-08-01T13:00:58.933Z,945
2017-08-01T13:01:58.971Z,925
2017-08-01T13:02:58.776Z,905
2017-08-01T13:03:58.758Z,885
2017-08-01T13:04:58.753Z,870
2017-08-01T13:05:58.746Z,880
2017-08-01T13:06:58.732Z,890
2017-08-01T13:07:58.736Z,890
2017-08-01T13:08:58.712Z,895
2017-08-01T13:09:58.561Z,920
2017-08-01T13:10:58.699Z,965
2017-08-01T13:11:58.674Z,960
2017-08-01T13:12:58.365Z,910
2017-08-01T13:13:58.647Z,875
2017-08-01T13:14:58.642Z,875
2017-08-01T13:15:58.623Z,875
2017-08-01T13:16:58.611Z,860
2017-08-01T13:17:58.607Z,850
2017-08-01T13:18:58.226Z,870
2017-08-01T13:19:58.810Z,930
2017-08-01T13:20:58.266Z,1020
2017-08-01T13:21:58.548Z,1070
2017-08-01T13:22:58.245Z,1075
2017-08-01T13:23:58.226Z,1020
2017-08-01T13:24:58.563Z,955
2017-08-01T13:25:58.208Z,930
2017-08-01T13:26:58.185Z,985
2017-08-01T13:27:57.883Z,1070
2017-08-01T13:28:58.484Z,1095
2017-08-01T13:29:58.447Z,1090
2017-08-01T13:30:58.435Z,1085
2017-08-01T13:31:58.124Z,1065
2017-08-01T13:32:58.129Z,1025
2017-08-01T13:33:58.100Z,975
2017-08-01T13:34:58.086Z,985
2017-08-01T13:35:58.075Z,1000
2017-08-01T13:36:58.067Z,985
2017-08-01T13:37:58.048Z,960
2017-08-01T13:38:58.019Z,945
2017-08-01T13:39:58.024Z,950
2017-08-01T13:40:58.028Z,950
2017-08-01T13:41:58.300Z,925
2017-08-01T13:42:57.994Z,845
2017-08-01T13:43:58.271Z,775
2017-08-01T13:44:58.258Z,730
2017-08-01T13:45:58.254Z,700
2017-08-01T13:46:58.933Z,690
2017-08-01T13:47:59.188Z,690
2017-08-01T13:48:58.206Z,690
2017-08-01T13:49:58.192Z,685
2017-08-01T13:50:58.178Z,680
2017-08-01T13:51:58.177Z,655
2017-08-01T13:52:58.153Z,635
2017-08-01T13:53:57.844Z,610
2017-08-01T13:54:57.832Z,585
2017-08-01T13:55:57.811Z,555